Time;durP1;ratioP1;P1;durP2;ratioP2;P2;SDS_P1;SDS_P2;PMS_P1;PMS_P2;Temp;Humidity;BMP_temperature;BMP_pressure;BME280_temperature;BME280_humidity;BME280_pressure;Samples;Min_cycle;Max_cycle;Signal;HPM_P1;HPM_P2
2022/08/31 00:04:40;;;;;;;4.00;2.30;;;22.80;57.30;;;;;;5076159;28;20173;-90
2022/08/31 00:07:06;;;;;;;2.30;2.10;;;22.80;57.30;;;;;;5060429;28;20181;-89
2022/08/31 00:09:32;;;;;;;2.40;2.20;;;22.90;57.40;;;;;;5059294;28;20182;-90
2022/08/31 00:11:58;;;;;;;3.43;2.40;;;22.80;57.70;;;;;;5058413;28;20176;-90
2022/08/31 00:14:25;;;;;;;2.53;2.30;;;22.60;58.10;;;;;;5058430;28;20177;-90
2022/08/31 00:16:50;;;;;;;2.60;2.40;;;22.60;58.20;;;;;;5058701;28;20701;-89
2022/08/31 00:19:16;;;;;;;2.90;2.33;;;22.70;58.10;;;;;;5059119;28;20221;-90
2022/08/31 00:21:42;;;;;;;5.60;2.47;;;22.60;58.40;;;;;;5059359;28;20185;-89
2022/08/31 00:24:08;;;;;;;2.60;2.40;;;22.70;58.40;;;;;;5058998;28;20170;-90
2022/08/31 00:26:35;;;;;;;2.93;2.33;;;22.70;58.30;;;;;;5058242;28;20174;-90
2022/08/31 00:29:01;;;;;;;2.30;1.97;;;22.70;58.60;;;;;;5060210;28;20174;-90
2022/08/31 00:31:27;;;;;;;2.30;1.90;;;22.60;58.80;;;;;;5059885;28;20584;-90
2022/08/31 00:33:55;;;;;;;2.20;2.00;;;22.60;58.70;;;;;;5058137;28;20243;-91
2022/08/31 00:36:22;;;;;;;2.63;2.07;;;22.60;59.30;;;;;;5056724;28;20185;-90
2022/08/31 00:38:49;;;;;;;3.00;2.00;;;22.60;58.80;;;;;;5058228;28;20208;-90
2022/08/31 00:41:17;;;;;;;2.43;2.20;;;22.70;58.70;;;;;;5075585;28;20572;-90
2022/08/31 00:43:55;;;;;;;2.10;1.80;;;22.40;60.40;;;;;;5074409;28;20196;-91
2022/08/31 00:46:31;;;;;;;2.90;1.97;;;22.50;59.70;;;;;;5057908;28;20326;-91
2022/08/31 00:49:17;;;;;;;3.80;1.90;;;22.50;60.10;;;;;;5057256;28;20272;-90
2022/08/31 00:51:50;;;;;;;2.87;2.00;;;22.40;60.90;;;;;;5057397;28;20186;-90
2022/08/31 00:54:20;;;;;;;3.33;2.30;;;22.40;61.10;;;;;;5056363;28;20575;-90
2022/08/31 00:56:47;;;;;;;2.07;1.87;;;22.40;62.10;;;;;;5057018;28;20452;-90
2022/08/31 00:59:15;;;;;;;3.10;1.80;;;22.40;61.10;;;;;;5058594;28;20205;-90
2022/08/31 01:01:41;;;;;;;4.40;2.17;;;22.30;62.00;;;;;;5058918;28;20187;-90
2022/08/31 01:09:39;;;;;;;2.73;1.90;;;22.10;65.10;;;;;;5026546;28;20249;-8
2022/08/31 01:32:58;;;;;;;3.23;1.50;;;21.80;74.30;;;;;;5033247;28;20176;-8
2022/08/31 01:39:16;;;;;;;3.17;1.97;;;21.90;71.20;;;;;;4936497;29;20231;-8
2022/08/31 01:42:15;;;;;;;2.63;1.80;;;21.80;74.70;;;;;;5036439;28;20635;-8
2022/08/31 01:44:50;;;;;;;2.03;1.50;;;21.80;72.20;;;;;;5034852;28;20189;-8
2022/08/31 01:47:35;;;;;;;1.97;1.67;;;21.90;71.90;;;;;;5034696;28;20187;-8
2022/08/31 01:50:38;;;;;;;2.20;1.83;;;21.80;73.80;;;;;;5017692;28;20210;-8
2022/08/31 01:53:04;;;;;;;2.07;1.83;;;21.80;72.80;;;;;;5033619;28;20253;-8
2022/08/31 01:55:36;;;;;;;1.93;1.50;;;21.80;74.80;;;;;;5016163;28;20732;-8
2022/08/31 02:01:06;;;;;;;1.80;1.70;;;21.50;76.80;;;;;;4991437;28;20219;-8
2022/08/31 02:03:44;;;;;;;4.37;1.80;;;21.60;77.70;;;;;;5032708;28;20197;-8
2022/08/31 02:09:59;;;;;;;1.30;1.20;;;21.70;75.30;;;;;;5008086;28;20293;-8
2022/08/31 02:12:33;;;;;;;1.60;1.50;;;21.60;76.30;;;;;;5034516;28;20253;-8
2022/08/31 02:15:02;;;;;;;2.63;1.40;;;21.50;79.40;;;;;;5035213;28;20531;-7
2022/08/31 02:17:47;;;;;;;1.47;1.30;;;21.50;77.50;;;;;;5034250;28;20174;-8
2022/08/31 02:20:25;;;;;;;3.67;1.40;;;21.60;76.60;;;;;;5034140;28;20173;-8
2022/08/31 02:23:08;;;;;;;3.87;1.30;;;21.60;77.30;;;;;;5034504;28;20176;-8
2022/08/31 02:26:04;;;;;;;2.43;1.50;;;21.60;77.50;;;;;;5034123;28;20165;-8
2022/08/31 02:28:51;;;;;;;1.67;1.30;;;21.50;79.10;;;;;;4934337;29;20293;-7
2022/08/31 02:31:50;;;;;;;1.93;1.20;;;21.40;79.60;;;;;;5016963;28;20178;-8
2022/08/31 02:34:19;;;;;;;1.73;1.40;;;21.40;79.60;;;;;;5034752;28;20626;-7
2022/08/31 02:37:30;;;;;;;1.60;1.30;;;21.40;79.60;;;;;;5033969;28;20466;-8
2022/08/31 02:39:50;;;;;;;1.90;1.30;;;21.50;79.50;;;;;;5023609;28;20278;-7
2022/08/31 02:42:24;;;;;;;3.80;1.57;;;21.30;81.80;;;;;;5033831;28;20187;-8
2022/08/31 02:45:26;;;;;;;1.73;1.40;;;21.20;82.10;;;;;;5034442;28;20460;-8
2022/08/31 02:48:28;;;;;;;1.47;1.33;;;21.10;82.60;;;;;;5020963;28;20191;-8
2022/08/31 02:54:28;;;;;;;1.70;1.37;;;21.20;81.70;;;;;;4939653;29;20474;-8
2022/08/31 02:57:05;;;;;;;2.27;1.30;;;21.40;80.00;;;;;;4939246;29;20243;-8
2022/08/31 02:59:59;;;;;;;1.47;1.20;;;21.40;80.80;;;;;;4938818;29;20353;-8
2022/08/31 03:02:24;;;;;;;2.67;1.30;;;21.30;81.00;;;;;;4939243;29;20198;-7
2022/08/31 03:05:02;;;;;;;3.00;1.30;;;21.20;82.90;;;;;;4939608;29;20197;-8
2022/08/31 03:07:37;;;;;;;1.50;1.30;;;21.20;83.60;;;;;;4937423;29;20198;-8
2022/08/31 03:13:30;;;;;;;1.63;1.30;;;21.30;81.50;;;;;;4933927;29;20188;-8
2022/08/31 03:16:01;;;;;;;1.30;1.20;;;21.30;82.00;;;;;;4934310;29;20198;-8
2022/08/31 03:18:42;;;;;;;2.20;1.30;;;21.30;80.40;;;;;;4933399;29;20573;-8
2022/08/31 03:21:17;;;;;;;1.30;1.20;;;21.30;81.00;;;;;;4933455;29;20189;-8
2022/08/31 03:24:18;;;;;;;1.40;1.30;;;21.30;80.70;;;;;;4949291;28;20190;-8
2022/08/31 03:26:48;;;;;;;1.47;1.33;;;21.30;81.60;;;;;;4915678;29;20191;-8
2022/08/31 03:29:17;;;;;;;2.90;1.50;;;21.20;82.70;;;;;;4900866;29;20227;-8
2022/08/31 03:32:22;;;;;;;1.77;1.20;;;21.30;81.80;;;;;;4916490;29;20199;-8
2022/08/31 03:34:59;;;;;;;1.80;1.43;;;21.30;81.70;;;;;;4915489;29;20218;-8
2022/08/31 03:37:33;;;;;;;1.40;1.30;;;21.30;82.60;;;;;;4913105;29;20183;-8
2022/08/31 03:39:59;;;;;;;1.73;1.30;;;21.30;81.20;;;;;;4896525;29;20354;-8
2022/08/31 03:42:25;;;;;;;1.77;1.30;;;21.30;81.70;;;;;;4912797;29;20397;-8
2022/08/31 03:44:59;;;;;;;1.77;1.20;;;21.30;81.20;;;;;;4913523;29;20211;-8
2022/08/31 03:47:37;;;;;;;1.50;1.30;;;21.30;81.20;;;;;;4897613;29;20178;-7
2022/08/31 03:50:11;;;;;;;1.43;1.20;;;21.30;80.90;;;;;;4972605;28;20317;-8
2022/08/31 03:52:46;;;;;;;1.33;1.23;;;21.20;82.10;;;;;;4992094;28;20450;-8
2022/08/31 03:55:52;;;;;;;1.53;1.40;;;21.30;81.40;;;;;;4992899;28;20285;-8
2022/08/31 03:58:18;;;;;;;1.53;1.40;;;21.30;82.00;;;;;;4977258;28;20180;-7
2022/08/31 04:01:39;;;;;;;2.50;1.60;;;21.20;82.40;;;;;;4991154;28;20183;-8
2022/08/31 04:04:23;;;;;;;2.67;1.13;;;21.20;85.60;;;;;;4922887;28;20460;-8
2022/08/31 04:06:49;;;;;;;1.43;1.33;;;21.20;81.70;;;;;;4977089;28;20450;-8
2022/08/31 04:09:18;;;;;;;3.80;1.47;;;21.20;82.80;;;;;;5013974;28;20316;-8
2022/08/31 04:12:21;;;;;;;1.57;1.47;;;21.20;81.90;;;;;;5033688;28;20184;-8
2022/08/31 04:15:06;;;;;;;4.23;1.53;;;21.20;82.20;;;;;;5014856;28;20179;-7
2022/08/31 04:17:47;;;;;;;1.50;1.33;;;21.10;84.20;;;;;;5032511;28;20190;-8
2022/08/31 04:20:22;;;;;;;1.50;1.30;;;21.10;83.70;;;;;;5033201;28;20180;-8
2022/08/31 04:23:07;;;;;;;2.23;1.43;;;21.20;82.40;;;;;;5013896;28;20257;-7
2022/08/31 04:26:14;;;;;;;1.60;1.50;;;21.20;83.50;;;;;;5016146;28;20455;-8
2022/08/31 04:28:46;;;;;;;2.00;1.50;;;20.80;86.20;;;;;;4955519;28;20189;-8
2022/08/31 04:34:14;;;;;;;2.50;1.37;;;20.90;86.20;;;;;;5032984;28;20183;-8
2022/08/31 04:37:02;;;;;;;1.40;1.30;;;20.70;86.80;;;;;;5033024;28;20276;-8
2022/08/31 04:39:50;;;;;;;2.33;1.30;;;20.90;86.00;;;;;;5032143;28;20350;-8
2022/08/31 04:42:21;;;;;;;1.50;1.40;;;20.90;84.90;;;;;;5032376;28;20190;-7
2022/08/31 04:44:59;;;;;;;1.40;1.30;;;21.00;84.30;;;;;;5032212;28;20188;-8
2022/08/31 04:47:30;;;;;;;2.17;1.43;;;21.00;83.60;;;;;;5015121;28;20196;-7
2022/08/31 04:49:59;;;;;;;1.50;1.40;;;21.00;87.30;;;;;;5033661;28;20338;-7
2022/08/31 04:52:44;;;;;;;2.83;1.60;;;21.00;83.80;;;;;;5014971;28;20195;-7
2022/08/31 04:55:24;;;;;;;1.40;1.30;;;21.10;84.20;;;;;;5015552;28;20636;-8
2022/08/31 04:57:53;;;;;;;3.17;1.47;;;21.10;82.70;;;;;;5033153;28;20188;-8
2022/08/31 05:00:21;;;;;;;1.90;1.40;;;21.10;83.40;;;;;;5042273;23;20187;-10
2022/08/31 05:02:56;;;;;;;1.50;1.30;;;21.10;83.00;;;;;;5072798;28;20385;-8
2022/08/31 05:05:30;;;;;;;2.43;1.47;;;21.20;81.90;;;;;;5088738;28;20178;-8
2022/08/31 05:07:56;;;;;;;2.00;1.70;;;21.30;81.40;;;;;;5068684;28;20191;-8
2022/08/31 05:10:23;;;;;;;2.13;1.50;;;21.20;81.60;;;;;;5087726;28;20243;-8
2022/08/31 05:12:52;;;;;;;1.97;1.47;;;21.20;81.90;;;;;;5070998;28;20176;-8
2022/08/31 05:15:29;;;;;;;4.90;1.60;;;21.30;81.10;;;;;;5065946;28;20553;-7
2022/08/31 05:18:07;;;;;;;1.67;1.53;;;21.30;82.60;;;;;;5072337;28;20225;-7
2022/08/31 05:20:33;;;;;;;1.73;1.30;;;21.30;81.40;;;;;;5088247;28;20424;-8
2022/08/31 05:23:06;;;;;;;1.80;1.50;;;21.30;81.00;;;;;;5087419;28;20273;-7
2022/08/31 05:25:32;;;;;;;3.53;2.07;;;21.30;80.30;;;;;;5086128;28;20169;-8
2022/08/31 05:28:01;;;;;;;2.57;1.50;;;21.30;83.90;;;;;;5088018;28;20530;-8
2022/08/31 05:30:26;;;;;;;4.40;1.70;;;21.20;82.00;;;;;;5086864;28;20170;-7
2022/08/31 05:33:13;;;;;;;3.23;1.50;;;21.20;82.30;;;;;;5068163;28;20465;-7
2022/08/31 05:35:48;;;;;;;2.80;1.47;;;21.10;83.20;;;;;;5067582;28;20208;-8
2022/08/31 05:38:16;;;;;;;2.10;1.30;;;21.10;83.90;;;;;;5086468;28;20268;-8
2022/08/31 05:41:05;;;;;;;2.27;1.63;;;21.00;84.40;;;;;;5085698;28;20180;-8
2022/08/31 05:43:32;;;;;;;2.30;1.60;;;21.10;83.40;;;;;;5083680;28;20294;-8
2022/08/31 05:46:31;;;;;;;2.93;1.80;;;21.10;83.80;;;;;;5065729;28;20178;-8
2022/08/31 05:48:59;;;;;;;3.90;1.90;;;21.20;83.20;;;;;;5018162;28;20714;-7
2022/08/31 05:51:33;;;;;;;2.00;1.60;;;21.10;86.30;;;;;;5028466;28;20478;-8
2022/08/31 05:54:13;;;;;;;1.50;1.40;;;21.10;84.40;;;;;;5083568;28;20638;-8
2022/08/31 05:56:42;;;;;;;2.20;1.33;;;21.20;82.90;;;;;;5084200;28;20236;-8
2022/08/31 05:59:11;;;;;;;2.10;1.67;;;21.30;82.40;;;;;;5085024;28;20172;-8
2022/08/31 06:01:49;;;;;;;2.20;1.70;;;21.30;84.20;;;;;;5085242;28;20451;-8
2022/08/31 06:04:16;;;;;;;1.90;1.43;;;21.40;82.10;;;;;;5085557;28;20175;-8
2022/08/31 06:06:45;;;;;;;1.90;1.70;;;21.30;82.60;;;;;;5069811;28;20184;-8
2022/08/31 06:09:13;;;;;;;2.00;1.60;;;21.30;83.70;;;;;;5069721;28;20218;-8
2022/08/31 06:11:42;;;;;;;3.07;1.70;;;21.40;82.90;;;;;;5088103;28;20274;-7
2022/08/31 06:14:14;;;;;;;3.07;2.10;;;21.50;81.90;;;;;;5088984;28;20180;-8
2022/08/31 06:16:47;;;;;;;1.50;1.23;;;21.70;84.30;;;;;;5063865;28;20181;-8
2022/08/31 06:19:15;;;;;;;1.70;1.60;;;21.90;80.10;;;;;;5087735;28;20323;-7
2022/08/31 06:21:42;;;;;;;4.50;1.70;;;22.20;80.30;;;;;;5067890;28;20196;-7
2022/08/31 06:24:29;;;;;;;3.73;1.70;;;22.50;74.40;;;;;;5086934;28;20178;-8
2022/08/31 06:27:21;;;;;;;1.87;1.50;;;23.10;71.20;;;;;;5086923;28;20479;-8
2022/08/31 06:29:48;;;;;;;3.43;1.70;;;23.60;65.40;;;;;;5064946;28;20214;-8
2022/08/31 06:32:25;;;;;;;1.90;1.50;;;23.60;67.80;;;;;;5085204;28;20262;-7
2022/08/31 06:34:50;;;;;;;2.97;1.80;;;23.90;63.80;;;;;;5066770;28;20170;-7
2022/08/31 06:37:34;;;;;;;3.23;1.50;;;23.90;63.30;;;;;;5083219;28;20262;-7
2022/08/31 06:40:03;;;;;;;4.83;1.87;;;23.90;61.90;;;;;;5084548;28;20189;-8
2022/08/31 06:42:50;;;;;;;2.03;1.57;;;23.70;64.40;;;;;;5083604;28;20243;-8
2022/08/31 06:45:21;;;;;;;2.77;1.70;;;23.60;66.10;;;;;;5064761;28;20525;-8
2022/08/31 06:47:50;;;;;;;2.37;2.10;;;23.40;66.60;;;;;;5085476;28;20364;-8
2022/08/31 06:50:48;;;;;;;2.37;1.60;;;23.40;66.80;;;;;;5066257;28;20202;-8
2022/08/31 06:53:16;;;;;;;4.57;1.70;;;23.50;65.40;;;;;;5086346;28;20207;-8
2022/08/31 06:55:51;;;;;;;4.33;1.90;;;23.40;66.70;;;;;;5070844;28;20536;-8
2022/08/31 06:58:22;;;;;;;4.00;1.63;;;23.40;68.20;;;;;;5086821;28;20392;-8
2022/08/31 07:01:13;;;;;;;2.43;1.70;;;23.50;66.90;;;;;;5086637;28;20179;-8
2022/08/31 07:03:42;;;;;;;3.00;2.43;;;24.10;63.30;;;;;;5086965;28;20186;-8
2022/08/31 07:06:35;;;;;;;1.77;1.60;;;25.00;60.50;;;;;;5067581;28;20177;-8
2022/08/31 07:09:20;;;;;;;2.40;1.63;;;25.90;56.40;;;;;;5076920;28;20227;-7
2022/08/31 07:12:01;;;;;;;2.73;1.80;;;26.70;54.60;;;;;;5086976;28;20553;-7
2022/08/31 07:14:46;;;;;;;2.30;1.77;;;27.10;53.60;;;;;;5085699;28;20178;-8
2022/08/31 07:17:14;;;;;;;2.33;1.90;;;27.40;52.90;;;;;;5065281;28;20175;-8
2022/08/31 07:19:49;;;;;;;4.10;1.87;;;27.80;52.10;;;;;;5083727;28;20175;-8
2022/08/31 07:22:15;;;;;;;1.87;1.67;;;27.70;51.70;;;;;;5085473;28;20162;-7
2022/08/31 07:24:44;;;;;;;3.30;2.07;;;27.40;51.90;;;;;;5086014;28;20177;-8
2022/08/31 07:27:17;;;;;;;2.73;1.80;;;27.20;52.10;;;;;;5084001;28;20320;-8
2022/08/31 07:29:46;;;;;;;4.27;2.23;;;27.00;52.30;;;;;;5083935;28;20567;-8
2022/08/31 07:32:16;;;;;;;2.60;1.80;;;27.00;53.20;;;;;;5085984;28;20410;-8
2022/08/31 07:35:00;;;;;;;3.67;1.90;;;27.50;52.30;;;;;;5087738;28;20159;-8
2022/08/31 07:43:03;;;;;;;2.50;1.92;;;29.40;49.70;;;;;;5085542;28;20178;-8
2022/08/31 07:45:35;;;;;;;4.95;1.75;;;29.70;50.00;;;;;;5088894;28;20167;-7
2022/08/31 07:48:13;;;;;;;4.57;2.08;;;30.00;49.20;;;;;;5087916;28;20265;-8
2022/08/31 07:50:45;;;;;;;4.28;2.65;;;30.20;49.70;;;;;;5090218;28;20195;-8
2022/08/31 07:53:13;;;;;;;2.60;1.95;;;30.40;48.50;;;;;;5087628;28;20250;-7
2022/08/31 07:55:44;;;;;;;2.80;1.90;;;30.50;48.50;;;;;;5071256;28;20194;-8
2022/08/31 07:58:14;;;;;;;2.17;1.90;;;30.70;48.00;;;;;;5089709;28;20302;-8
2022/08/31 08:00:40;;;;;;;4.07;2.17;;;31.00;48.00;;;;;;5088744;28;20167;-8
2022/08/31 08:03:26;;;;;;;3.10;2.10;;;30.90;48.10;;;;;;5089504;28;20477;-8
2022/08/31 08:05:54;;;;;;;4.72;2.10;;;30.70;48.10;;;;;;5074223;28;20579;-8
2022/08/31 08:08:25;;;;;;;5.78;2.38;;;30.20;48.20;;;;;;5091344;28;20447;-8
2022/08/31 08:11:23;;;;;;;4.20;2.08;;;29.80;49.00;;;;;;5092210;28;20404;-8
2022/08/31 08:13:53;;;;;;;2.53;1.95;;;29.60;49.20;;;;;;5090309;28;20218;-8
2022/08/31 08:16:22;;;;;;;2.75;2.28;;;29.10;49.20;;;;;;5071444;28;20171;-8
2022/08/31 08:18:54;;;;;;;2.58;1.95;;;28.40;50.50;;;;;;5071510;28;20174;-8
2022/08/31 08:21:58;;;;;;;2.13;1.90;;;27.90;50.80;;;;;;5088903;28;20590;-8
2022/08/31 08:24:30;;;;;;;2.53;2.10;;;27.60;51.20;;;;;;5089989;28;20167;-8
2022/08/31 08:26:59;;;;;;;2.30;2.00;;;27.40;51.80;;;;;;5090164;28;20175;-8
2022/08/31 08:29:24;;;;;;;2.67;2.00;;;27.50;51.90;;;;;;5090109;28;20202;-8
2022/08/31 08:32:00;;;;;;;3.90;1.95;;;27.90;51.20;;;;;;5071328;28;20181;-8
2022/08/31 08:34:28;;;;;;;1.80;1.70;;;27.60;51.60;;;;;;5088955;28;20174;-8
2022/08/31 08:37:26;;;;;;;4.82;2.30;;;27.60;51.30;;;;;;5089659;28;20265;-8
2022/08/31 08:39:58;;;;;;;4.22;2.17;;;27.50;51.70;;;;;;5084170;28;20214;-7
2022/08/31 08:42:25;;;;;;;2.45;2.00;;;27.90;51.80;;;;;;5088859;28;20178;-8
2022/08/31 08:45:00;;;;;;;2.50;1.70;;;28.70;51.10;;;;;;5070374;28;20271;-8
2022/08/31 08:47:35;;;;;;;2.95;1.80;;;30.00;49.70;;;;;;5070724;28;20170;-8
2022/08/31 08:50:05;;;;;;;2.20;1.70;;;31.10;48.40;;;;;;5085106;28;20707;-8
2022/08/31 08:52:49;;;;;;;3.22;1.85;;;31.70;47.40;;;;;;5084997;28;20794;-8
2022/08/31 08:55:24;;;;;;;2.33;1.95;;;32.00;47.30;;;;;;5085989;28;20444;-8
2022/08/31 08:57:56;;;;;;;2.42;1.88;;;32.20;46.50;;;;;;5087036;28;20166;-8
2022/08/31 09:00:25;;;;;;;5.45;2.50;;;32.10;46.40;;;;;;5085695;28;20217;-8
2022/08/31 09:03:05;;;;;;;3.70;2.08;;;32.30;46.80;;;;;;5066146;28;20391;-8
2022/08/31 09:06:08;;;;;;;4.00;2.10;;;32.40;46.40;;;;;;5084735;28;20154;-8
2022/08/31 09:09:02;;;;;;;4.32;2.30;;;32.20;46.20;;;;;;5066480;28;20214;-8
2022/08/31 09:11:54;;;;;;;3.65;2.00;;;32.50;46.50;;;;;;5087212;28;20191;-8
2022/08/31 09:14:26;;;;;;;3.30;1.80;;;32.30;46.00;;;;;;5087684;28;20301;-8
2022/08/31 09:17:29;;;;;;;3.15;2.03;;;31.70;46.80;;;;;;5086804;28;20166;-8
2022/08/31 09:20:04;;;;;;;3.85;2.10;;;32.10;46.20;;;;;;5086758;28;20198;-8
2022/08/31 09:22:49;;;;;;;2.67;1.83;;;32.20;46.30;;;;;;5086508;28;20174;-8
2022/08/31 09:25:18;;;;;;;3.17;2.10;;;31.80;46.40;;;;;;5086405;28;20262;-8
2022/08/31 09:28:06;;;;;;;5.75;1.90;;;31.60;46.50;;;;;;5084272;28;20450;-8
2022/08/31 09:30:43;;;;;;;3.85;1.90;;;31.60;46.60;;;;;;5084557;28;20174;-8
2022/08/31 09:33:49;;;;;;;3.30;2.00;;;31.40;46.60;;;;;;5083280;28;20483;-8
2022/08/31 09:36:17;;;;;;;3.75;2.05;;;31.30;46.60;;;;;;5067612;28;20221;-8
2022/08/31 09:38:46;;;;;;;2.58;1.77;;;31.20;47.00;;;;;;5085401;28;20162;-8
2022/08/31 09:41:27;;;;;;;2.80;2.00;;;31.50;46.90;;;;;;5085559;28;20428;-8
2022/08/31 09:44:18;;;;;;;2.83;2.10;;;31.80;46.50;;;;;;5087310;28;20174;-8
2022/08/31 09:47:00;;;;;;;3.63;2.20;;;32.10;46.10;;;;;;5086201;28;20181;-8
2022/08/31 09:49:35;;;;;;;2.35;2.15;;;32.20;46.10;;;;;;5087486;28;20195;-8
2022/08/31 09:55:26;;;;;;;1.98;1.77;;;31.40;46.70;;;;;;5084162;28;20228;-8
2022/08/31 09:58:06;;;;;;;3.50;2.00;;;31.40;46.50;;;;;;5085960;28;20195;-8
2022/08/31 10:01:00;;;;;;;2.67;2.08;;;30.90;46.70;;;;;;5085638;28;20289;-8
2022/08/31 10:03:34;;;;;;;2.65;2.30;;;30.40;47.30;;;;;;5086898;28;20163;-8
2022/08/31 10:06:00;;;;;;;3.58;2.25;;;29.80;48.10;;;;;;5086224;28;20171;-8
2022/08/31 10:08:56;;;;;;;2.55;2.15;;;29.30;48.70;;;;;;5085464;28;20386;-8
2022/08/31 10:11:38;;;;;;;4.72;2.35;;;28.90;49.30;;;;;;5079413;28;20214;-8
2022/08/31 10:14:33;;;;;;;2.65;2.45;;;28.60;49.80;;;;;;5071073;28;20182;-8
2022/08/31 10:17:13;;;;;;;4.32;2.92;;;28.30;50.20;;;;;;5069819;28;20365;-8
2022/08/31 10:20:14;;;;;;;3.17;2.40;;;28.20;50.90;;;;;;5085564;28;20477;-8
2022/08/31 10:23:04;;;;;;;4.32;2.13;;;27.90;51.30;;;;;;5085207;28;20602;-8
2022/08/31 10:25:53;;;;;;;4.32;2.90;;;27.70;51.10;;;;;;5085890;28;20289;-8
2022/08/31 10:28:44;;;;;;;3.05;2.22;;;27.70;51.40;;;;;;5065263;28;20604;-8
2022/08/31 10:31:33;;;;;;;2.40;2.10;;;27.70;51.50;;;;;;5083827;28;20274;-8
2022/08/31 10:37:42;;;;;;;3.58;2.40;;;27.50;51.60;;;;;;5067610;28;20217;-8
2022/08/31 10:40:30;;;;;;;2.63;2.20;;;27.50;52.20;;;;;;5074787;28;20190;-8
2022/08/31 10:43:51;;;;;;;5.68;2.50;;;27.50;51.80;;;;;;5087189;28;20393;-8
2022/08/31 10:46:53;;;;;;;3.05;2.30;;;27.50;52.10;;;;;;5023510;28;20165;-8
2022/08/31 10:49:25;;;;;;;3.17;2.45;;;27.50;52.30;;;;;;5016591;28;20216;-8
2022/08/31 10:52:31;;;;;;;3.92;2.85;;;27.50;52.40;;;;;;5023317;28;20184;-8
2022/08/31 10:55:22;;;;;;;4.22;2.30;;;27.40;52.90;;;;;;5056716;28;20182;-8
2022/08/31 10:58:12;;;;;;;3.10;2.55;;;27.40;52.80;;;;;;5087853;28;20213;-8
2022/08/31 11:01:07;;;;;;;3.40;2.45;;;27.30;53.00;;;;;;5086315;28;20174;-8
2022/08/31 11:03:48;;;;;;;3.47;2.08;;;27.10;53.60;;;;;;5084483;28;20316;-8
2022/08/31 11:06:59;;;;;;;4.57;2.20;;;27.00;53.40;;;;;;5085746;28;20197;-8
2022/08/31 11:09:33;;;;;;;3.70;2.72;;;26.90;53.60;;;;;;5086211;28;20202;-8
2022/08/31 11:12:14;;;;;;;3.63;2.30;;;26.80;54.00;;;;;;5085415;28;20531;-8
2022/08/31 11:15:35;;;;;;;3.22;2.80;;;26.80;54.10;;;;;;5069947;28;20325;-8
2022/08/31 11:18:38;;;;;;;3.30;2.30;;;26.70;54.50;;;;;;5087986;28;20332;-8
2022/08/31 11:21:22;;;;;;;3.33;2.37;;;26.70;54.30;;;;;;5087729;28;20333;-8
2022/08/31 11:24:32;;;;;;;3.67;2.50;;;26.80;54.50;;;;;;5068987;28;20167;-8
2022/08/31 11:27:24;;;;;;;2.10;1.90;;;26.70;54.70;;;;;;5085374;28;20167;-8
2022/08/31 11:30:23;;;;;;;2.30;2.10;;;26.70;54.70;;;;;;5085984;28;20205;-8
2022/08/31 11:32:59;;;;;;;5.97;2.60;;;26.70;54.70;;;;;;5084416;28;20170;-8
2022/08/31 11:36:01;;;;;;;2.90;2.10;;;26.70;55.10;;;;;;5087495;28;20563;-8
2022/08/31 11:38:53;;;;;;;2.47;2.27;;;26.60;55.10;;;;;;5088157;28;20597;-8
2022/08/31 11:41:46;;;;;;;5.20;3.57;;;26.60;55.40;;;;;;5086365;28;20160;-8
2022/08/31 11:44:40;;;;;;;6.47;3.10;;;26.50;56.30;;;;;;5086663;28;20159;-8
2022/08/31 11:47:33;;;;;;;3.83;2.40;;;26.40;56.30;;;;;;5070013;28;20232;-8
2022/08/31 11:50:08;;;;;;;4.67;2.27;;;26.30;56.40;;;;;;5087806;28;20194;-8
2022/08/31 11:53:15;;;;;;;2.80;2.60;;;26.40;56.40;;;;;;5088733;28;20575;-8
2022/08/31 11:56:34;;;;;;;5.60;2.93;;;26.30;56.80;;;;;;5088683;28;20171;-8
2022/08/31 11:59:44;;;;;;;4.93;2.90;;;26.30;56.70;;;;;;5022929;28;20327;-8
2022/08/31 12:02:29;;;;;;;4.47;2.80;;;26.30;57.30;;;;;;5018379;28;20617;-8
2022/08/31 12:05:02;;;;;;;3.40;2.60;;;26.20;57.30;;;;;;5084750;28;20171;-8
2022/08/31 12:07:47;;;;;;;2.80;2.40;;;26.10;57.50;;;;;;5084210;28;20178;-8
2022/08/31 12:10:38;;;;;;;4.00;2.50;;;26.10;57.50;;;;;;5063256;28;20244;-8
2022/08/31 12:13:36;;;;;;;2.97;2.70;;;26.20;57.60;;;;;;5069492;28;20575;-8
2022/08/31 12:16:11;;;;;;;4.53;2.70;;;26.10;57.80;;;;;;5088390;28;20171;-8
2022/08/31 12:19:05;;;;;;;3.07;2.40;;;26.10;57.90;;;;;;5084699;28;20585;-8
2022/08/31 12:24:56;;;;;;;2.80;2.50;;;26.10;58.00;;;;;;5087716;28;20224;-8
2022/08/31 12:27:59;;;;;;;3.60;2.43;;;26.10;58.40;;;;;;5086342;28;20567;-8
2022/08/31 12:30:27;;;;;;;2.93;2.33;;;26.10;58.10;;;;;;5085330;28;20194;-8
2022/08/31 12:33:08;;;;;;;2.40;2.20;;;26.10;58.20;;;;;;5087395;28;20175;-8
2022/08/31 12:35:48;;;;;;;5.80;2.90;;;26.10;58.20;;;;;;5086276;28;20167;-8
2022/08/31 12:38:27;;;;;;;3.60;2.23;;;26.00;59.10;;;;;;5086500;28;20641;-8
2022/08/31 12:40:57;;;;;;;3.50;2.10;;;26.10;58.40;;;;;;5086185;28;20177;-8
2022/08/31 12:43:56;;;;;;;2.27;1.93;;;26.00;58.40;;;;;;5088472;28;20171;-8
2022/08/31 12:46:32;;;;;;;2.97;2.67;;;26.00;58.40;;;;;;5087243;28;20495;-8
2022/08/31 12:49:16;;;;;;;2.47;2.27;;;26.10;58.40;;;;;;5087545;28;20464;-8
2022/08/31 12:51:59;;;;;;;4.77;2.47;;;26.00;58.40;;;;;;5089126;28;20159;-8
2022/08/31 12:54:47;;;;;;;2.87;2.33;;;26.00;58.50;;;;;;5088520;28;20202;-8
2022/08/31 12:57:40;;;;;;;4.00;2.40;;;26.00;58.50;;;;;;5086430;28;20540;-8
2022/08/31 13:00:25;;;;;;;5.00;2.70;;;25.90;58.60;;;;;;5087148;28;20425;-8
2022/08/31 13:03:02;;;;;;;3.10;2.90;;;25.90;58.30;;;;;;5086267;28;20231;-9
2022/08/31 13:05:35;;;;;;;4.93;2.90;;;25.90;57.80;;;;;;5087792;28;20199;-8
2022/08/31 13:08:21;;;;;;;4.63;2.90;;;25.90;57.70;;;;;;5086719;28;20232;-8
2022/08/31 13:10:56;;;;;;;3.20;2.90;;;25.90;57.80;;;;;;5083401;28;20208;-8
2022/08/31 13:13:28;;;;;;;8.27;3.23;;;25.90;57.30;;;;;;5065574;28;20178;-8
2022/08/31 13:16:07;;;;;;;4.10;2.80;;;25.80;57.30;;;;;;5085192;28;20430;-8
2022/08/31 13:18:36;;;;;;;4.77;2.53;;;25.80;57.70;;;;;;5087026;28;20217;-8
2022/08/31 13:21:09;;;;;;;3.70;2.83;;;25.80;58.00;;;;;;5088429;28;20695;-8
2022/08/31 13:23:41;;;;;;;2.60;2.40;;;25.80;58.10;;;;;;5087413;28;20475;-8
2022/08/31 13:26:19;;;;;;;3.63;2.43;;;25.80;57.70;;;;;;5067313;28;20166;-8
2022/08/31 13:29:08;;;;;;;4.03;2.70;;;25.80;57.40;;;;;;5066337;28;20234;-8
2022/08/31 13:31:52;;;;;;;4.37;2.60;;;25.70;57.50;;;;;;5085651;28;20173;-8
2022/08/31 13:34:38;;;;;;;3.63;2.60;;;25.70;57.00;;;;;;5084693;28;20159;-8
2022/08/31 13:37:10;;;;;;;3.00;2.67;;;25.70;57.30;;;;;;5084861;28;20159;-8
2022/08/31 13:39:46;;;;;;;4.43;2.60;;;25.70;57.00;;;;;;5083721;28;20690;-8
2022/08/31 13:42:21;;;;;;;3.40;2.43;;;25.70;57.40;;;;;;5084690;28;20465;-8
2022/08/31 13:45:10;;;;;;;2.60;2.23;;;25.70;58.00;;;;;;5086087;28;20201;-8
2022/08/31 13:47:54;;;;;;;2.90;2.60;;;25.70;57.70;;;;;;5083909;28;20178;-8
2022/08/31 13:50:22;;;;;;;4.63;2.40;;;25.80;57.70;;;;;;5092733;28;20328;-8
2022/08/31 13:53:09;;;;;;;4.17;2.50;;;25.80;57.50;;;;;;5094079;28;20245;-8
2022/08/31 13:55:37;;;;;;;2.97;2.63;;;25.80;57.40;;;;;;5068300;28;20231;-8
2022/08/31 13:58:30;;;;;;;3.10;2.50;;;25.80;56.70;;;;;;5066667;28;20275;-8
2022/08/31 14:01:28;;;;;;;3.77;2.60;;;25.80;56.90;;;;;;5082197;28;20441;-8
2022/08/31 14:03:58;;;;;;;2.83;2.37;;;25.80;57.20;;;;;;5091563;28;20189;-9
2022/08/31 14:06:40;;;;;;;3.07;2.50;;;25.80;57.40;;;;;;5093724;28;20166;-8
2022/08/31 14:09:20;;;;;;;2.63;2.30;;;25.90;57.30;;;;;;5087505;28;20287;-8
2022/08/31 14:12:03;;;;;;;3.90;2.57;;;25.80;57.50;;;;;;5086042;28;20174;-8
2022/08/31 14:14:55;;;;;;;2.27;2.07;;;25.80;57.10;;;;;;5085575;28;20334;-8
2022/08/31 14:17:24;;;;;;;3.47;2.50;;;25.80;56.30;;;;;;5084217;28;20535;-8
2022/08/31 14:19:53;;;;;;;3.73;2.60;;;25.80;56.40;;;;;;5085731;28;20178;-8
2022/08/31 14:22:34;;;;;;;3.30;2.23;;;25.80;56.70;;;;;;5080135;28;20457;-8
2022/08/31 14:25:14;;;;;;;2.80;2.50;;;25.70;57.20;;;;;;5083284;28;20178;-8
2022/08/31 14:27:43;;;;;;;2.50;2.30;;;25.70;56.60;;;;;;5085036;28;20257;-8
2022/08/31 14:30:14;;;;;;;2.30;2.10;;;25.70;56.70;;;;;;5081995;28;20570;-8
2022/08/31 14:32:44;;;;;;;2.53;2.07;;;25.70;57.10;;;;;;5082658;28;20166;-8
2022/08/31 14:35:13;;;;;;;3.70;2.50;;;25.70;57.30;;;;;;5081976;28;20170;-8
2022/08/31 14:37:49;;;;;;;4.40;2.60;;;25.70;57.10;;;;;;5066481;28;20167;-8
2022/08/31 14:40:15;;;;;;;3.03;2.20;;;25.70;55.80;;;;;;5085204;28;20171;-8
2022/08/31 14:42:50;;;;;;;2.30;2.10;;;25.70;55.70;;;;;;5087749;28;20245;-8
2022/08/31 14:45:18;;;;;;;2.83;2.40;;;25.70;56.70;;;;;;5088848;28;20500;-8
2022/08/31 14:48:07;;;;;;;2.90;2.60;;;25.70;56.30;;;;;;5088138;28;20186;-8
2022/08/31 14:50:36;;;;;;;5.47;2.47;;;25.70;55.40;;;;;;5086662;28;20198;-8
2022/08/31 14:53:01;;;;;;;2.50;2.30;;;25.70;56.10;;;;;;5087388;28;20167;-8
2022/08/31 14:55:28;;;;;;;2.43;2.23;;;25.70;56.30;;;;;;5087781;28;20174;-9
2022/08/31 14:58:05;;;;;;;2.30;2.10;;;25.60;57.00;;;;;;5070105;28;20167;-8
2022/08/31 15:00:33;;;;;;;3.53;2.50;;;25.60;56.10;;;;;;5064719;28;20268;-8
2022/08/31 15:03:02;;;;;;;2.40;2.20;;;25.60;55.60;;;;;;5086554;28;20172;-8